This is the latest recevied weather packets stored in our database for station/object GW1699. If no packets are shown the sender has not sent any weather packets the latest 10 day(s).
| Time | Temp. | Humidity | Pressure | Rain* | Wind** | Luminosity | Snow |
|---|---|---|---|---|---|---|---|
| 1777990542 | 21.67° C | 52% | 1010.4 hPa | 0 mm | - | - | - |
| 1777988373 | 20.56° C | 54% | 1010.8 hPa | 0 mm | - | - | - |
| 1777987651 | 21.11° C | 57% | 1010.8 hPa | 0 mm | - | - | - |
| 1777981165 | 15.56° C | 81% | 1010.8 hPa | 0 mm | - | - | - |
| 1777980095 | 14.44° C | 83% | 1010.8 hPa | 0 mm | - | - | - |
| 1777972872 | 11.67° C | 92% | 1009.4 hPa | 0 mm | - | - | - |
| 1777972173 | 11.67° C | 92% | 1009.4 hPa | 0 mm | - | - | - |
| 1777971810 | 11.67° C | 91% | 1009.4 hPa | 0 mm | - | - | - |
| 1777970370 | 11.11° C | 93% | 1009.1 hPa | 0 mm | - | - | - |
| 1777967849 | 10.56° C | 95% | 1009.1 hPa | 0 mm | - | - | - |
| 1777967471 | 10.56° C | 95% | 1009.1 hPa | 0 mm | - | - | - |
| 1777966779 | 10.56° C | 95% | 1008.8 hPa | 0 mm | - | - | - |
| 1777959570 | 11.67° C | 94% | 1008.8 hPa | 0 mm | - | - | - |
| 1777959189 | 11.67° C | 94% | 1009.1 hPa | 0 mm | - | - | - |
| 1777958137 | 12.22° C | 93% | 1008.8 hPa | 0 mm | - | - | - |
| 1777949863 | 11.67° C | 93% | 1008.4 hPa | 0 mm | - | - | - |
| 1777946966 | 12.22° C | 91% | 1008.4 hPa | 0 mm | - | - | - |
| 1777946597 | 12.22° C | 90% | 1008.4 hPa | 0 mm | - | - | - |
| 1777945158 | 12.78° C | 88% | 1008.4 hPa | 0 mm | - | - | - |
| 1777943736 | 13.33° C | 88% | 1008.4 hPa | 0 mm | - | - | - |
| 1777943011 | 13.89° C | 85% | 1008.4 hPa | 0 mm | - | - | - |
| 1777940113 | 16.11° C | 76% | 1008.8 hPa | 0 mm | - | - | - |
| 1777939035 | 17.22° C | 73% | 1008.4 hPa | 0 mm | - | - | - |
| 1777937622 | 18.89° C | 66% | 1008.8 hPa | 0 mm | - | - | - |
| 1777935107 | 20° C | 65% | 1008.8 hPa | 0 mm | - | - | - |
* Rain since midnight (hover to see other rain measurements)
** Current wind speed in m/s (hover to see current wind gust speed)